Погода Итингана 2 недели

Минас-Жерайс, Бразилия

14 - 27 июля
  • 14июля
    Сегодня
    +13°
    +27°
    Облачно с прояснениями
    ВремяПогодаТемператураВлажностьДавлениеВетер, м/сВероятность осадков
    00:00Ясно и безоблачно+16°C85 %730 мм1.3 м/с5 %
    03:00Ясно и безоблачно+15°C94 %729 мм0.5 м/с5 %
    06:00Практически безоблачно+13°C97 %730 мм0.4 м/с5 %
    09:00Ясно и безоблачно+20°C67 %731 мм1.3 м/с3 %
    12:00Пасмурно, сплошная облачность+26°C43 %730 мм4.1 м/с18 %
    15:00Облачно с прояснениями+27°C40 %729 мм3.4 м/с2 %
    18:00Ясно и безоблачно+23°C49 %728 мм3.1 м/с5 %
    21:00Ясно и безоблачно+22°C65 %729 мм2.0 м/с5 %
  • 15июля
    Понедельник
    +13°
    +29°
    Ясно и безоблачно
    ВремяПогодаТемператураВлажностьДавлениеВетер, м/сВероятность осадков
    00:00Ясно и безоблачно+17°C83 %729 мм1.1 м/с5 %
    03:00Ясно и безоблачно+16°C93 %729 мм1.0 м/с5 %
    06:00Ясно и безоблачно+14°C98 %729 мм0.6 м/с5 %
    09:00Практически безоблачно+20°C71 %732 мм1.8 м/с3 %
    12:00Ясно и безоблачно+26°C35 %731 мм2.0 м/с5 %
    15:00Ясно и безоблачно+29°C28 %729 мм2.5 м/с5 %
    18:00Ясно и безоблачно+22°C46 %729 мм2.1 м/с5 %
    21:00Ясно и безоблачно+21°C62 %730 мм1.1 м/с5 %
  • 16июля
    Вторник
    +15°
    +30°
    Небольшая облачность
    ВремяПогодаТемператураВлажностьДавлениеВетер, м/сВероятность осадков
    00:00Ясно и безоблачно+16°C70 %730 мм1.1 м/с4 %
    03:00Ясно и безоблачно+15°C81 %729 мм1.1 м/с5 %
    06:00Ясно и безоблачно+14°C93 %730 мм0.9 м/с5 %
    09:00Небольшая облачность+21°C69 %732 мм0.9 м/с4 %
    12:00Облачно с прояснениями+28°C36 %731 мм2.5 м/с4 %
    15:00Небольшая облачность+30°C32 %729 мм3.4 м/с4 %
    18:00Ясно и безоблачно+24°C42 %729 мм2.8 м/с6 %
    21:00Ясно и безоблачно+22°C61 %731 мм1.9 м/с38 %
  • 17июля
    Среда
    +14°
    +30°
    Небольшая облачность
    ВремяПогодаТемператураВлажностьДавлениеВетер, м/сВероятность осадков
    00:00Ясно и безоблачно+18°C78 %731 мм1.5 м/с25 %
    03:00Ясно и безоблачно+17°C92 %730 мм1.0 м/с12 %
    06:00Небольшая облачность+16°C96 %730 мм0.6 м/с12 %
    09:00Практически безоблачно+21°C69 %732 мм2.0 м/с11 %
    12:00Небольшая облачность+27°C43 %731 мм2.0 м/с9 %
    15:00Небольшая облачность+29°C36 %729 мм1.9 м/с8 %
    18:00Небольшая облачность+25°C50 %729 мм1.1 м/с6 %
    21:00Ясно и безоблачно+23°C61 %730 мм1.3 м/с8 %
  • 18июля
    Четверг
    +14°
    +31°
    Практически безоблачно
    ВремяПогодаТемператураВлажностьДавлениеВетер, м/сВероятность осадков
    00:00Ясно и безоблачно+17°C75 %729 мм1.5 м/с5 %
    03:00Ясно и безоблачно+16°C86 %728 мм0.7 м/с5 %
    06:00Ясно и безоблачно+15°C95 %729 мм0.6 м/с5 %
    09:00Ясно и безоблачно+21°C69 %731 мм1.5 м/с5 %
    12:00Ясно и безоблачно+28°C41 %730 мм1.7 м/с6 %
    15:00Практически безоблачно+30°C33 %728 мм1.9 м/с5 %
    18:00Практически безоблачно+24°C46 %728 мм1.6 м/с6 %
    21:00Ясно и безоблачно+22°C61 %729 мм1.1 м/с6 %
Мы используем cookies
Соглашаюсь